createdAt,value
2022-10-21T05:03:26.252Z,99627.69
2022-10-21T05:05:57.605Z,99591.59
2022-10-21T05:08:26.553Z,99599.09
2022-10-21T05:11:00.237Z,99592.69
2022-10-21T05:13:30.577Z,99578.22
2022-10-21T05:16:00.853Z,99590.81
2022-10-21T05:18:35.862Z,99573.19
2022-10-21T05:21:06.815Z,99591.59
2022-10-21T05:23:39.983Z,99580.66
2022-10-21T05:26:10.055Z,99608.97
2022-10-21T05:28:38.641Z,99607.09
2022-10-21T05:31:06.953Z,99604.13
2022-10-21T05:33:36.397Z,99538.94
2022-10-21T05:36:08.222Z,99577.94
2022-10-21T05:38:36.526Z,99568.06
2022-10-21T05:41:05.435Z,99576.84
2022-10-21T05:43:33.562Z,99558.66
2022-10-21T05:46:01.501Z,99566.16
2022-10-21T05:48:29.556Z,99548.50
2022-10-21T05:50:59.400Z,99546.09
2022-10-21T05:53:27.663Z,99529.28
2022-10-21T05:56:00.244Z,99534.09
2022-10-21T05:58:29.279Z,99565.31
2022-10-21T06:00:58.036Z,99522.06
2022-10-21T06:03:30.098Z,99570.91
2022-10-21T06:06:00.698Z,99561.28
2022-10-21T06:08:29.253Z,99577.88
2022-10-21T06:11:04.436Z,99545.28
2022-10-21T06:13:32.878Z,99579.78
2022-10-21T06:16:01.143Z,99605.16
2022-10-21T06:18:29.944Z,99578.97
2022-10-21T06:20:59.345Z,99574.69
2022-10-21T06:23:27.729Z,99569.09
2022-10-21T06:25:56.839Z,99576.03
2022-10-21T06:28:27.172Z,99585.88
2022-10-21T06:30:57.130Z,99578.94
2022-10-21T06:33:31.367Z,99526.34
2022-10-21T06:41:19.282Z,99615.81
2022-10-21T06:43:48.556Z,99594.50
2022-10-21T06:46:16.954Z,99635.09
2022-10-21T06:48:45.880Z,99625.50
2022-10-21T06:51:25.851Z,99618.03
2022-10-21T06:54:05.131Z,99608.41
2022-10-21T06:56:35.043Z,99600.41
2022-10-21T06:59:03.427Z,99653.84
2022-10-21T07:01:48.419Z,99616.44
2022-10-21T07:04:22.760Z,99600.94
2022-10-21T07:06:51.131Z,99606.81
2022-10-21T07:09:19.366Z,99615.38
2022-10-21T07:11:48.810Z,99593.19
2022-10-21T07:14:20.662Z,99631.38
2022-10-21T07:16:49.222Z,99598.00
2022-10-21T07:19:17.621Z,99635.13
2022-10-21T07:21:46.376Z,99618.06
2022-10-21T07:24:16.576Z,99619.66
2022-10-21T07:26:49.570Z,99662.41
2022-10-21T07:29:18.792Z,99657.59
2022-10-21T07:31:47.218Z,99679.00
2022-10-21T07:34:15.393Z,99680.63
2022-10-21T07:36:48.222Z,99690.50
2022-10-21T07:39:18.684Z,99649.09
2022-10-21T07:41:50.856Z,99692.91
2022-10-21T07:44:19.561Z,99688.38
2022-10-21T07:46:48.217Z,99736.22
2022-10-21T07:49:18.050Z,99673.44
2022-10-21T07:51:46.701Z,99730.34
2022-10-21T07:54:16.174Z,99683.84
2022-10-21T07:56:46.749Z,99726.59
2022-10-21T07:59:18.140Z,99715.88
2022-10-21T08:04:18.541Z,99707.31
2022-10-21T08:06:48.014Z,99669.63
2022-10-21T08:09:17.010Z,99676.84
2022-10-21T08:11:45.363Z,99712.91
2022-10-21T08:14:13.381Z,99684.31
2022-10-21T08:16:42.995Z,99722.28
2022-10-21T08:19:16.746Z,99684.31
2022-10-21T08:21:44.942Z,99681.63
2022-10-21T08:24:12.949Z,99706.25
2022-10-21T08:26:41.180Z,99699.28
2022-10-21T08:29:09.181Z,99680.03
2022-10-21T08:31:37.408Z,99684.03
2022-10-21T08:34:07.275Z,99688.31
2022-10-21T08:36:35.465Z,99716.38
2022-10-21T08:39:03.603Z,99728.16
2022-10-21T08:41:50.117Z,99726.28
2022-10-21T08:44:29.426Z,99745.28
2022-10-21T08:47:01.184Z,99680.03
2022-10-21T08:49:43.398Z,99733.50
2022-10-21T08:52:15.160Z,99727.66
2022-10-21T08:54:47.752Z,99753.81
2022-10-21T08:57:16.571Z,99748.50
2022-10-21T08:59:44.643Z,99710.22
2022-10-21T09:02:28.112Z,99709.41
2022-10-21T09:05:19.226Z,99744.19
2022-10-21T09:07:59.082Z,99743.63
2022-10-21T09:10:37.628Z,99768.22
2022-10-21T09:13:13.556Z,99772.72
2022-10-21T09:15:54.811Z,99729.09
2022-10-21T09:18:40.228Z,99738.44
2022-10-21T09:21:19.614Z,99768.59
2022-10-21T09:24:06.223Z,99773.34
2022-10-21T09:26:38.386Z,99770.13
2022-10-21T09:29:27.507Z,99769.56
2022-10-21T09:32:02.587Z,99764.44
2022-10-21T09:34:41.987Z,99766.81
2022-10-21T09:37:18.499Z,99751.81
2022-10-21T09:39:51.791Z,99721.34
2022-10-21T09:42:42.195Z,99757.94
2022-10-21T09:45:19.150Z,99747.75
2022-10-21T09:47:52.006Z,99765.94
2022-10-21T09:50:20.784Z,99757.09
2022-10-21T09:52:56.657Z,99741.50
2022-10-21T09:55:25.888Z,99746.84
2022-10-21T09:57:58.747Z,99734.56
2022-10-21T10:00:42.676Z,99733.09
2022-10-21T10:03:11.111Z,99721.91
2022-10-21T10:05:44.503Z,99737.63
2022-10-21T10:08:39.458Z,99712.50
2022-10-21T10:11:22.003Z,99746.16
2022-10-21T10:13:51.414Z,99754.22
2022-10-21T10:16:23.833Z,99759.53
2022-10-21T10:18:54.361Z,99744.06
2022-10-21T10:21:23.743Z,99782.03
2022-10-21T10:23:55.324Z,99768.66
2022-10-21T10:26:29.260Z,99747.56
2022-10-21T10:28:59.929Z,99791.63
2022-10-21T10:31:32.531Z,99773.09
2022-10-21T10:34:04.762Z,99766.69
2022-10-21T10:36:37.025Z,99745.81
2022-10-21T10:39:10.326Z,99744.13
2022-10-21T10:41:41.570Z,99774.06
2022-10-21T10:44:13.596Z,99761.22
2022-10-21T10:46:42.391Z,99779.69
2022-10-21T10:49:22.783Z,99783.69
2022-10-21T10:52:06.724Z,99776.31
2022-10-21T10:54:36.672Z,99747.66
2022-10-21T10:57:07.577Z,99738.81
2022-10-21T10:59:42.530Z,99735.78
2022-10-21T11:02:23.759Z,99753.13
2022-10-21T11:05:14.989Z,99743.78
2022-10-21T11:07:49.421Z,99736.47
2022-10-21T11:10:30.951Z,99745.28
2022-10-21T11:13:00.340Z,99742.34
2022-10-21T11:15:56.154Z,99770.06
2022-10-21T11:18:32.596Z,99709.72
2022-10-21T11:21:08.263Z,99758.69
2022-10-21T11:23:55.610Z,99758.59
2022-10-21T11:26:36.943Z,99751.06
2022-10-21T11:29:24.250Z,99745.69
2022-10-21T11:32:17.054Z,99780.69
2022-10-21T11:35:07.639Z,99756.31
2022-10-21T11:37:49.292Z,99711.31
2022-10-21T11:40:31.590Z,99742.72
2022-10-21T11:43:09.927Z,99783.75
2022-10-21T11:45:48.424Z,99756.19
2022-10-21T11:48:29.118Z,99786.53
2022-10-21T11:51:06.250Z,99766.44
2022-10-21T11:53:54.869Z,99779.16
2022-10-21T11:56:30.311Z,99740.03
2022-10-21T11:59:14.643Z,99753.25
2022-10-21T12:01:53.595Z,99771.66
2022-10-21T12:04:45.437Z,99786.56
2022-10-21T12:07:30.531Z,99734.06
2022-10-21T12:10:05.355Z,99749.91
2022-10-21T12:12:36.727Z,99789.69
2022-10-21T12:15:18.771Z,99759.97
2022-10-21T12:17:50.026Z,99767.88
2022-10-21T12:20:23.973Z,99730.94
2022-10-21T12:22:58.380Z,99737.91
2022-10-21T12:25:34.322Z,99753.03
2022-10-21T12:28:09.649Z,99769.22
2022-10-21T12:30:41.623Z,99764.56
2022-10-21T12:33:18.064Z,99774.44
2022-10-21T12:35:50.589Z,99742.47
2022-10-21T12:38:43.739Z,99768.78
2022-10-21T12:41:31.887Z,99737.94
2022-10-21T12:44:07.886Z,99693.63
2022-10-21T12:46:41.000Z,99736.13
2022-10-21T12:49:21.735Z,99729.16
2022-10-21T12:51:52.685Z,99743.59
2022-10-21T12:54:26.683Z,99725.75
2022-10-21T12:57:03.652Z,99764.56
2022-10-21T12:59:35.350Z,99712.78
2022-10-21T13:02:25.593Z,99754.00
2022-10-21T13:04:56.099Z,99736.13
2022-10-21T13:07:35.514Z,99728.97
2022-10-21T13:10:27.738Z,99759.06
2022-10-21T13:13:41.604Z,99759.88
2022-10-21T13:16:37.521Z,99751.00
2022-10-21T13:19:34.271Z,99750.38
2022-10-21T13:22:04.854Z,99717.09
2022-10-21T13:24:34.767Z,99705.63
2022-10-21T13:27:05.706Z,99731.84
2022-10-21T13:29:43.880Z,99756.19
2022-10-21T13:32:28.952Z,99756.19
2022-10-21T13:35:23.613Z,99730.03
2022-10-21T13:37:57.083Z,99716.66
2022-10-21T13:40:31.871Z,99717.75
2022-10-21T13:43:03.649Z,99737.44
2022-10-21T13:45:34.582Z,99748.63
2022-10-21T13:48:08.792Z,99731.84
2022-10-21T13:50:42.186Z,99704.44
2022-10-21T13:53:24.674Z,99748.81
2022-10-21T13:56:00.816Z,99737.66
2022-10-21T13:58:32.115Z,99719.47
2022-10-21T14:01:09.660Z,99742.63
2022-10-21T14:09:19.839Z,99749.84
2022-10-21T14:12:00.741Z,99674.44
2022-10-21T14:14:34.004Z,99737.25
2022-10-21T14:25:22.360Z,99739.03
2022-10-21T14:27:53.876Z,99712.88
2022-10-21T14:30:23.716Z,99744.22
2022-10-21T14:32:53.202Z,99741.81
2022-10-21T14:35:27.931Z,99718.25
2022-10-21T14:37:58.391Z,99705.47
2022-10-21T14:40:32.347Z,99762.00
2022-10-21T14:43:02.769Z,99749.22
2022-10-21T14:45:33.843Z,99735.41
2022-10-21T14:48:11.259Z,99712.75
2022-10-21T14:50:42.075Z,99717.28
2022-10-21T14:53:18.347Z,99729.94
2022-10-21T14:55:50.063Z,99724.25
2022-10-21T14:58:23.949Z,99687.69
2022-10-21T15:00:56.943Z,99703.75
2022-10-21T15:03:40.261Z,99706.03
2022-10-21T15:06:14.238Z,99750.28
2022-10-21T15:08:45.032Z,99708.81
2022-10-21T15:11:24.572Z,99711.00
2022-10-21T15:14:02.011Z,99729.94
2022-10-21T15:16:32.385Z,99753.16
2022-10-21T15:19:07.553Z,99747.38
2022-10-21T15:21:41.347Z,99703.19
2022-10-21T15:24:19.475Z,99710.97
2022-10-21T15:26:51.443Z,99719.19
2022-10-21T15:29:29.000Z,99762.75
2022-10-21T15:31:58.609Z,99749.13
2022-10-21T15:34:26.776Z,99752.69
2022-10-21T15:36:55.516Z,99725.84
2022-10-21T15:39:23.434Z,99724.72
2022-10-21T15:41:55.187Z,99724.59
2022-10-21T15:44:26.975Z,99756.78
2022-10-21T15:47:00.650Z,99764.06
2022-10-21T15:49:33.096Z,99746.03
2022-10-21T15:52:01.678Z,99760.22
2022-10-21T15:54:33.629Z,99760.81
2022-10-21T15:57:04.287Z,99748.09
2022-10-21T15:59:34.664Z,99757.84
2022-10-21T16:02:02.788Z,99775.16
2022-10-21T16:04:31.122Z,99771.94
2022-10-21T16:07:05.247Z,99751.72
2022-10-21T16:09:33.373Z,99779.28
2022-10-21T16:12:02.798Z,99786.06
2022-10-21T16:14:33.679Z,99788.22
2022-10-21T16:17:01.765Z,99785.03
2022-10-21T16:19:32.237Z,99792.59
2022-10-21T16:22:00.056Z,99783.53
2022-10-21T16:24:28.305Z,99755.81
2022-10-21T16:26:56.157Z,99771.59
2022-10-21T16:29:26.724Z,99786.06
2022-10-21T16:31:54.607Z,99741.22
2022-10-21T16:34:22.660Z,99786.13
2022-10-21T16:36:50.861Z,99754.22
2022-10-21T16:39:20.707Z,99791.66
2022-10-21T16:41:48.767Z,99770.06
2022-10-21T16:44:16.856Z,99790.94
2022-10-21T16:46:51.038Z,99787.16
2022-10-21T16:49:22.739Z,99791.75
2022-10-21T16:51:53.867Z,99734.47
2022-10-21T16:54:43.424Z,99763.06
2022-10-21T16:57:13.256Z,99789.00
2022-10-21T16:59:41.268Z,99806.91
2022-10-21T17:02:16.461Z,99801.03
2022-10-21T17:04:45.009Z,99795.75
2022-10-21T17:07:12.931Z,99813.16
2022-10-21T17:09:41.246Z,99816.13
2022-10-21T17:17:42.040Z,99825.59
2022-10-21T17:20:23.232Z,99769.91
2022-10-21T17:23:00.698Z,99810.19
2022-10-21T17:25:32.789Z,99764.53
2022-10-21T17:28:01.629Z,99763.25
2022-10-21T17:30:33.670Z,99823.44
2022-10-21T17:33:04.601Z,99797.81
2022-10-21T17:35:39.069Z,99832.25
2022-10-21T17:38:28.273Z,99793.34
2022-10-21T17:41:01.338Z,99816.84
2022-10-21T17:43:38.198Z,99797.91
2022-10-21T17:46:11.820Z,99782.75
2022-10-21T17:48:55.079Z,99782.47
2022-10-21T17:51:25.090Z,99787.31
2022-10-21T17:53:56.643Z,99805.00
2022-10-21T17:56:30.332Z,99813.56
2022-10-21T17:59:04.789Z,99826.47
2022-10-21T18:01:37.136Z,99854.78
2022-10-21T18:04:10.723Z,99799.50
2022-10-21T18:06:42.310Z,99797.66
2022-10-21T18:09:13.840Z,99838.03
2022-10-21T18:11:45.007Z,99827.88
2022-10-21T18:14:16.502Z,99793.19
